Time;durP1;ratioP1;P1;durP2;ratioP2;P2;SDS_P1;SDS_P2;PMS_P1;PMS_P2;Temp;Humidity;BMP_temperature;BMP_pressure;BME280_temperature;BME280_humidity;BME280_pressure;Samples;Min_cycle;Max_cycle;Signal;HPM_P1;HPM_P2
2024/01/21 00:02:14;;;;;;;52.33;48.22;;;;;;;-2.27;100.00;102661.50;5072492;28;20080;-57
2024/01/21 00:04:41;;;;;;;51.38;47.28;;;;;;;-2.16;100.00;102661.81;5083226;28;20058;-57
2024/01/21 00:07:08;;;;;;;47.00;42.80;;;;;;;-2.04;100.00;102670.78;5086536;28;20075;-57
2024/01/21 00:09:35;;;;;;;46.97;42.97;;;;;;;-2.16;100.00;102663.59;5079260;28;20098;-57
2024/01/21 00:12:02;;;;;;;51.92;47.72;;;;;;;-2.01;100.00;102668.03;5070779;28;20059;-59
2024/01/21 00:14:28;;;;;;;50.00;46.00;;;;;;;-2.00;100.00;102671.47;5083550;28;20432;-58
2024/01/21 00:16:55;;;;;;;49.92;46.03;;;;;;;-2.23;100.00;102680.44;5073400;28;20056;-58
2024/01/21 00:19:24;;;;;;;54.78;50.47;;;;;;;-2.18;100.00;102678.44;5080521;28;20087;-58
2024/01/21 00:21:50;;;;;;;53.95;49.65;;;;;;;-2.16;100.00;102682.66;5076979;28;20139;-58
2024/01/21 00:24:17;;;;;;;51.53;47.22;;;;;;;-2.18;100.00;102681.91;5085857;28;20495;-58
2024/01/21 00:26:47;;;;;;;49.15;45.15;;;;;;;-2.19;100.00;102681.97;5077530;28;20052;-60
2024/01/21 00:29:16;;;;;;;46.55;42.65;;;;;;;-2.02;100.00;102683.75;5081887;28;20514;-59
2024/01/21 00:31:43;;;;;;;51.92;47.65;;;;;;;-2.11;100.00;102678.06;5077750;28;20065;-58
2024/01/21 00:34:10;;;;;;;51.92;47.67;;;;;;;-1.93;100.00;102680.69;5080153;28;20431;-59
2024/01/21 00:36:38;;;;;;;57.67;53.08;;;;;;;-2.27;100.00;102671.91;5074221;28;20056;-58
2024/01/21 00:39:05;;;;;;;51.05;46.95;;;;;;;-2.04;100.00;102670.78;5079664;28;20051;-58
2024/01/21 00:41:32;;;;;;;53.60;49.10;;;;;;;-2.10;100.00;102678.91;5085898;28;20082;-58
2024/01/21 00:43:59;;;;;;;43.70;40.00;;;;;;;-2.08;100.00;102680.53;5072825;28;20127;-58
2024/01/21 00:46:26;;;;;;;44.95;41.15;;;;;;;-2.20;100.00;102675.09;5072047;28;20554;-58
2024/01/21 00:48:53;;;;;;;52.10;47.90;;;;;;;-2.12;100.00;102684.22;5070651;28;20527;-58
2024/01/21 00:51:20;;;;;;;49.13;44.70;;;;;;;-2.07;100.00;102681.38;5081121;28;20524;-58
2024/01/21 00:53:48;;;;;;;53.90;49.50;;;;;;;-1.75;100.00;102684.97;5076543;28;20056;-58
2024/01/21 00:56:15;;;;;;;46.72;42.72;;;;;;;-2.05;100.00;102687.34;5074322;28;20063;-58
2024/01/21 00:58:42;;;;;;;49.70;45.45;;;;;;;-1.71;100.00;102689.09;5075734;28;20074;-58
2024/01/21 01:01:09;;;;;;;57.47;53.08;;;;;;;-1.87;100.00;102688.19;5077762;28;20055;-59
2024/01/21 01:03:37;;;;;;;48.20;44.22;;;;;;;-1.41;100.00;102683.25;5074741;28;20053;-58
2024/01/21 01:06:05;;;;;;;55.58;51.38;;;;;;;-1.91;100.00;102689.25;5079644;28;20500;-58
2024/01/21 01:08:31;;;;;;;46.70;42.90;;;;;;;-2.01;100.00;102686.28;5079849;28;20090;-58
2024/01/21 01:11:00;;;;;;;50.30;46.20;;;;;;;-2.04;100.00;102686.41;5079685;28;20059;-59
2024/01/21 01:13:27;;;;;;;48.83;44.92;;;;;;;-1.07;100.00;102690.13;5079739;28;20562;-57
2024/01/21 01:15:53;;;;;;;50.42;45.97;;;;;;;-2.26;100.00;102688.41;5076942;28;20420;-57
2024/01/21 01:18:19;;;;;;;46.05;42.28;;;;;;;-2.19;100.00;102685.41;5079183;28;20118;-58
2024/01/21 01:20:46;;;;;;;47.88;43.97;;;;;;;-1.82;100.00;102691.41;5080216;28;20063;-58
2024/01/21 01:23:14;;;;;;;46.45;42.45;;;;;;;-1.89;100.00;102690.88;5082217;28;20074;-58
2024/01/21 01:25:41;;;;;;;50.95;46.75;;;;;;;-1.48;100.00;102687.09;5073892;28;20398;-58
2024/01/21 01:28:09;;;;;;;46.28;42.38;;;;;;;-2.19;100.00;102681.97;5075270;28;20486;-58
2024/01/21 01:30:36;;;;;;;45.33;41.72;;;;;;;-2.17;100.00;102685.34;5073871;28;20487;-59
2024/01/21 01:33:03;;;;;;;45.90;41.90;;;;;;;-1.95;100.00;102685.97;5069873;28;20056;-58
2024/01/21 01:35:30;;;;;;;59.17;54.45;;;;;;;-2.15;100.00;102680.88;5078662;28;20052;-58
2024/01/21 01:37:58;;;;;;;53.33;48.92;;;;;;;-1.76;100.00;102682.44;5070538;28;20055;-58
2024/01/21 01:40:24;;;;;;;45.13;41.33;;;;;;;-2.34;100.00;102676.59;5077753;28;20463;-57
2024/01/21 01:42:57;;;;;;;40.50;36.95;;;;;;;-2.29;100.00;102681.59;5075515;28;20053;-57
2024/01/21 01:45:25;;;;;;;44.85;41.10;;;;;;;-2.24;100.00;102684.81;5063427;28;20432;-57
2024/01/21 01:47:52;;;;;;;48.90;44.90;;;;;;;-2.07;100.00;102695.22;5076373;28;20060;-56
2024/01/21 01:50:20;;;;;;;43.20;39.60;;;;;;;-2.36;100.00;102695.78;5075464;28;20117;-56
2024/01/21 01:52:47;;;;;;;39.53;36.13;;;;;;;-2.62;100.00;102691.84;5072983;28;20404;-56
2024/01/21 01:55:15;;;;;;;44.50;40.70;;;;;;;-2.22;100.00;102688.16;5079538;28;20479;-56
2024/01/21 01:57:42;;;;;;;42.58;39.00;;;;;;;-2.72;100.00;102695.75;5075664;28;20066;-56
2024/01/21 02:00:10;;;;;;;51.25;47.25;;;;;;;-2.70;100.00;102691.34;5079584;28;20056;-57
2024/01/21 02:02:40;;;;;;;43.67;40.08;;;;;;;-3.03;100.00;102698.00;5074526;28;20059;-57
2024/01/21 02:05:08;;;;;;;40.28;36.83;;;;;;;-3.06;100.00;102705.09;5075055;28;20060;-56
2024/01/21 02:07:35;;;;;;;45.20;41.40;;;;;;;-2.82;100.00;102701.41;5079238;28;20596;-59
2024/01/21 02:10:02;;;;;;;50.40;46.42;;;;;;;-1.97;100.00;102700.81;5080672;28;20060;-58
2024/01/21 02:12:29;;;;;;;44.05;40.33;;;;;;;-2.79;100.00;102705.63;5079699;28;20070;-57
2024/01/21 02:14:56;;;;;;;42.45;38.58;;;;;;;-2.85;100.00;102698.94;5074950;28;20131;-58
2024/01/21 02:17:23;;;;;;;44.75;41.05;;;;;;;-2.62;100.00;102703.09;5077460;28;20059;-58
2024/01/21 02:19:51;;;;;;;47.63;43.75;;;;;;;-2.83;100.00;102699.72;5075154;28;20458;-59
2024/01/21 02:22:19;;;;;;;42.90;39.30;;;;;;;-2.68;100.00;102700.78;5075031;28;20067;-59
2024/01/21 02:24:47;;;;;;;45.05;41.35;;;;;;;-2.82;100.00;102709.19;5075109;28;20520;-58
2024/01/21 02:27:14;;;;;;;43.75;40.15;;;;;;;-2.76;100.00;102708.06;5076777;28;20063;-58
2024/01/21 02:29:41;;;;;;;52.60;48.35;;;;;;;-2.82;100.00;102704.00;5067157;28;20057;-57
2024/01/21 02:32:08;;;;;;;54.50;50.20;;;;;;;-2.88;100.00;102701.69;5074522;28;20547;-57
2024/01/21 02:34:35;;;;;;;50.92;46.75;;;;;;;-2.74;100.00;102700.22;5080041;28;20044;-59
2024/01/21 02:37:02;;;;;;;52.80;48.50;;;;;;;-2.80;100.00;102711.75;5073690;28;20063;-59
2024/01/21 02:39:29;;;;;;;49.17;44.97;;;;;;;-2.71;100.00;102719.13;5077670;28;20052;-58
2024/01/21 02:41:57;;;;;;;57.28;52.78;;;;;;;-2.83;100.00;102717.09;5068333;28;20496;-58
2024/01/21 02:44:24;;;;;;;49.80;45.55;;;;;;;-2.43;100.00;102721.28;5070526;28;20083;-58
2024/01/21 02:46:50;;;;;;;52.17;48.08;;;;;;;-2.57;100.00;102714.13;5070590;28;20056;-58
2024/01/21 02:49:17;;;;;;;49.55;45.47;;;;;;;-2.51;100.00;102728.63;5073809;28;20499;-58
2024/01/21 02:51:44;;;;;;;49.33;45.33;;;;;;;-2.50;100.00;102722.47;5072435;28;20060;-58
2024/01/21 02:54:11;;;;;;;53.47;49.28;;;;;;;-2.46;100.00;102731.81;5077899;28;20075;-58
2024/01/21 02:56:38;;;;;;;50.13;46.13;;;;;;;-2.48;100.00;102725.88;5076599;28;20060;-58
2024/01/21 02:59:06;;;;;;;50.40;46.30;;;;;;;-2.28;100.00;102732.72;5070758;28;20134;-58
2024/01/21 03:01:34;;;;;;;48.20;44.20;;;;;;;-2.26;100.00;102738.69;5076002;28;20056;-59
2024/01/21 03:04:01;;;;;;;55.47;51.28;;;;;;;-2.50;100.00;102734.66;5073805;28;20515;-60
2024/01/21 03:06:28;;;;;;;47.03;43.13;;;;;;;-2.40;100.00;102734.13;5075615;28;20451;-57
2024/01/21 03:08:55;;;;;;;55.50;50.90;;;;;;;-2.43;100.00;102741.25;5076560;28;20056;-60
2024/01/21 03:11:21;;;;;;;67.22;62.03;;;;;;;-2.29;100.00;102738.00;5066886;28;20056;-56
2024/01/21 03:13:48;;;;;;;65.28;60.33;;;;;;;-2.64;100.00;102746.53;5076133;28;20150;-57
2024/01/21 03:16:17;;;;;;;46.92;42.83;;;;;;;-2.55;100.00;102748.72;5076398;28;20059;-59
2024/01/21 03:18:44;;;;;;;44.85;40.85;;;;;;;-2.70;100.00;102744.22;5077548;28;20515;-58
2024/01/21 03:21:11;;;;;;;52.33;47.92;;;;;;;-2.70;100.00;102741.59;5069402;28;20056;-57
2024/01/21 03:23:38;;;;;;;66.53;61.33;;;;;;;-2.40;100.00;102746.31;5071405;28;20056;-56
2024/01/21 03:26:05;;;;;;;64.05;58.95;;;;;;;-2.45;100.00;102748.28;5076132;28;20565;-58
2024/01/21 03:28:32;;;;;;;56.22;51.33;;;;;;;-2.35;100.00;102744.34;5075230;28;20440;-56
2024/01/21 03:30:58;;;;;;;51.80;47.40;;;;;;;-2.37;100.00;102756.59;5078069;28;20059;-57
2024/01/21 03:33:27;;;;;;;66.32;61.22;;;;;;;-2.33;100.00;102748.56;5073804;28;20063;-56
2024/01/21 03:35:54;;;;;;;72.28;66.82;;;;;;;-2.32;100.00;102746.81;5073612;28;20151;-59
2024/01/21 03:38:21;;;;;;;60.95;55.95;;;;;;;-2.45;100.00;102751.75;5076053;28;20067;-56
2024/01/21 03:40:48;;;;;;;65.07;59.78;;;;;;;-2.61;100.00;102756.78;5077236;28;20062;-56
2024/01/21 03:43:17;;;;;;;67.93;62.63;;;;;;;-2.48;100.00;102764.91;5081836;28;20512;-58
2024/01/21 03:45:44;;;;;;;73.05;67.60;;;;;;;-2.39;100.00;102761.00;5068042;28;20058;-58
2024/01/21 03:48:11;;;;;;;69.28;63.80;;;;;;;-2.38;100.00;102753.13;5074488;28;20056;-57
2024/01/21 03:50:40;;;;;;;72.57;66.78;;;;;;;-2.23;100.00;102756.78;5073636;28;20608;-57
2024/01/21 03:53:07;;;;;;;71.85;66.30;;;;;;;-2.33;100.00;102761.59;5073021;28;20048;-57
2024/01/21 03:55:33;;;;;;;74.95;69.45;;;;;;;-2.12;100.00;102759.72;5074746;28;20063;-59
2024/01/21 03:58:00;;;;;;;76.63;71.03;;;;;;;-2.22;100.00;102761.06;5077813;28;20052;-57
2024/01/21 04:00:27;;;;;;;73.65;67.97;;;;;;;-2.18;100.00;102760.03;5075797;28;20060;-57
2024/01/21 04:02:54;;;;;;;66.10;60.55;;;;;;;-2.34;100.00;102762.47;5078617;28;20075;-57
2024/01/21 04:05:21;;;;;;;66.15;60.65;;;;;;;-1.92;100.00;102763.13;5079069;28;20051;-57
2024/01/21 04:07:49;;;;;;;63.53;58.22;;;;;;;-2.14;100.00;102768.53;5078534;28;20052;-57
2024/01/21 04:10:16;;;;;;;65.70;60.58;;;;;;;-1.32;100.00;102765.34;5076542;28;20059;-57
2024/01/21 04:12:43;;;;;;;61.22;55.92;;;;;;;-2.50;100.00;102768.50;5068017;28;20052;-57
2024/01/21 04:15:09;;;;;;;66.28;60.88;;;;;;;-2.56;100.00;102765.25;5075765;28;20368;-58
2024/01/21 04:17:36;;;;;;;66.30;60.90;;;;;;;-2.47;100.00;102770.94;5077613;28;20059;-58
2024/01/21 04:20:07;;;;;;;72.63;66.82;;;;;;;-2.47;100.00;102782.19;5083047;28;20048;-58
2024/01/21 04:22:34;;;;;;;75.82;70.05;;;;;;;-2.44;100.00;102770.81;5079946;28;20136;-59
2024/01/21 04:25:02;;;;;;;67.47;61.97;;;;;;;-2.59;100.00;102774.97;5082762;28;20056;-59
2024/01/21 04:27:29;;;;;;;86.20;80.05;;;;;;;-2.55;100.00;102771.28;5080993;28;20086;-59
2024/01/21 04:29:56;;;;;;;87.47;81.28;;;;;;;-2.40;100.00;102773.19;5084690;28;20056;-59
2024/01/21 04:32:23;;;;;;;76.80;71.03;;;;;;;-2.30;100.00;102773.59;5077304;28;20064;-59
2024/01/21 04:34:50;;;;;;;75.15;68.95;;;;;;;-2.37;100.00;102782.59;5072691;28;20059;-59
2024/01/21 04:37:16;;;;;;;69.25;63.65;;;;;;;-2.38;100.00;102779.16;5082427;28;20569;-59
2024/01/21 04:39:43;;;;;;;66.05;60.75;;;;;;;-2.29;100.00;102788.31;5080633;28;20078;-59
2024/01/21 04:42:12;;;;;;;71.60;66.03;;;;;;;-2.55;100.00;102786.91;5070652;28;20055;-59
2024/01/21 04:44:38;;;;;;;77.85;71.95;;;;;;;-2.23;100.00;102790.63;5074346;28;20500;-59
2024/01/21 04:47:05;;;;;;;59.63;54.53;;;;;;;-2.55;100.00;102794.72;5077223;28;20514;-59
2024/01/21 04:49:32;;;;;;;71.20;65.65;;;;;;;-2.58;100.00;102800.06;5072184;28;20056;-59
2024/01/21 04:51:59;;;;;;;55.35;50.58;;;;;;;-2.44;100.00;102808.09;5077916;28;20052;-59
2024/01/21 04:54:26;;;;;;;70.75;65.18;;;;;;;-2.14;100.00;102803.22;5073651;28;20056;-59
2024/01/21 04:56:53;;;;;;;61.22;55.83;;;;;;;-2.36;100.00;102805.97;5069059;28;20074;-59
2024/01/21 04:59:21;;;;;;;62.42;57.22;;;;;;;-2.35;100.00;102810.25;5069295;28;20435;-59
2024/01/21 05:01:51;;;;;;;76.57;70.82;;;;;;;-1.24;100.00;102812.72;5075962;28;20059;-59
2024/01/21 05:04:18;;;;;;;68.55;63.15;;;;;;;-1.05;100.00;102807.44;5083732;28;20063;-59
2024/01/21 05:06:45;;;;;;;69.18;63.88;;;;;;;-1.42;100.00;102811.91;5075196;28;20071;-59
2024/01/21 05:09:12;;;;;;;56.75;52.15;;;;;;;-1.88;100.00;102814.13;5072635;28;20048;-59
2024/01/21 05:11:39;;;;;;;62.80;57.90;;;;;;;-2.01;100.00;102820.84;5084985;28;20083;-59
2024/01/21 05:14:05;;;;;;;60.25;55.55;;;;;;;-2.09;100.00;102813.41;5077445;28;20060;-59
2024/01/21 05:16:34;;;;;;;74.63;69.43;;;;;;;-2.55;100.00;102815.53;5081749;28;20102;-59
2024/01/21 05:19:01;;;;;;;51.53;47.13;;;;;;;-2.46;100.00;102819.47;5078579;28;20655;-59
2024/01/21 05:21:27;;;;;;;53.97;49.58;;;;;;;-2.28;100.00;102821.22;5079606;28;20052;-59
2024/01/21 05:23:54;;;;;;;61.95;57.05;;;;;;;-2.18;100.00;102830.31;5074350;28;20048;-59
2024/01/21 05:26:24;;;;;;;75.32;69.32;;;;;;;-2.36;100.00;102824.19;5069190;28;20059;-59
2024/01/21 05:28:52;;;;;;;67.65;62.45;;;;;;;-2.56;100.00;102819.88;5086904;28;20066;-59
2024/01/21 05:31:20;;;;;;;58.25;53.45;;;;;;;-2.60;100.00;102825.31;5077250;28;20507;-59
2024/01/21 05:33:49;;;;;;;66.00;60.70;;;;;;;-2.22;100.00;102822.72;5081393;28;20161;-59
2024/01/21 05:36:16;;;;;;;66.07;60.78;;;;;;;-2.42;100.00;102821.88;5078621;28;20841;-59
2024/01/21 05:38:42;;;;;;;85.45;79.15;;;;;;;-2.39;100.00;102824.34;5081206;28;20477;-59
2024/01/21 05:41:09;;;;;;;71.05;65.65;;;;;;;-2.26;100.00;102828.97;5071961;28;20056;-59
2024/01/21 05:43:36;;;;;;;66.57;61.17;;;;;;;-2.44;100.00;102828.91;5079257;28;20055;-59
2024/01/21 05:46:03;;;;;;;67.82;62.33;;;;;;;-2.10;100.00;102830.78;5066337;28;20075;-59
2024/01/21 05:48:30;;;;;;;66.85;61.55;;;;;;;-2.13;100.00;102835.28;5075820;28;20095;-59
2024/01/21 05:50:58;;;;;;;72.03;66.53;;;;;;;-2.31;100.00;102832.63;5079965;28;20052;-59
2024/01/21 05:53:25;;;;;;;61.17;56.38;;;;;;;-2.43;100.00;102841.00;5076122;28;20063;-59
2024/01/21 05:55:52;;;;;;;57.17;52.58;;;;;;;-2.32;100.00;102843.97;5076518;28;20072;-59
2024/01/21 05:58:19;;;;;;;65.10;60.13;;;;;;;-2.51;100.00;102840.50;5080365;28;20674;-59
2024/01/21 06:00:46;;;;;;;75.13;69.70;;;;;;;-2.40;100.00;102840.00;5069356;28;20542;-59
2024/01/21 06:03:13;;;;;;;60.38;55.47;;;;;;;-1.94;100.00;102851.72;5080910;28;20052;-59
2024/01/21 06:05:40;;;;;;;64.40;59.53;;;;;;;-2.43;100.00;102846.19;5078986;28;20059;-59
2024/01/21 06:08:10;;;;;;;74.65;69.15;;;;;;;-2.20;100.00;102852.97;5080614;28;20056;-59
2024/01/21 06:10:37;;;;;;;65.32;60.17;;;;;;;-2.20;100.00;102859.94;5073072;28;20060;-59
2024/01/21 06:13:04;;;;;;;70.28;64.97;;;;;;;-2.07;100.00;102869.69;5078922;28;20486;-59
2024/01/21 06:15:31;;;;;;;57.83;53.22;;;;;;;-2.12;100.00;102868.22;5071718;28;20060;-59
2024/01/21 06:17:57;;;;;;;60.15;55.45;;;;;;;-2.30;100.00;102869.91;5070870;28;20428;-59
2024/01/21 06:20:24;;;;;;;60.13;55.25;;;;;;;-2.22;100.00;102870.41;5079496;28;20504;-59
2024/01/21 06:22:51;;;;;;;62.88;58.08;;;;;;;-2.34;100.00;102865.75;5068536;28;20580;-59
2024/01/21 06:25:21;;;;;;;60.03;55.33;;;;;;;-2.52;100.00;102877.84;5081520;28;20443;-59
2024/01/21 06:27:49;;;;;;;62.38;57.47;;;;;;;-2.34;100.00;102877.00;5074266;28;20144;-58
2024/01/21 06:30:17;;;;;;;64.28;59.38;;;;;;;-2.39;100.00;102878.13;5068455;28;20680;-58
2024/01/21 06:32:44;;;;;;;72.85;67.55;;;;;;;-1.81;100.00;102885.88;5081051;28;20087;-58
2024/01/21 06:35:12;;;;;;;80.53;74.82;;;;;;;-2.32;100.00;102887.38;5078496;28;20579;-58
2024/01/21 06:37:39;;;;;;;67.80;62.90;;;;;;;-2.43;100.00;102893.03;5076322;28;20522;-58
2024/01/21 06:40:08;;;;;;;66.53;61.63;;;;;;;-2.37;100.00;102894.53;5076059;28;20052;-58
2024/01/21 06:42:37;;;;;;;67.00;62.10;;;;;;;-2.22;100.00;102900.81;5078698;28;20137;-58
2024/01/21 06:45:04;;;;;;;74.25;68.80;;;;;;;-1.90;100.00;102899.34;5070814;28;20423;-59
2024/01/21 06:47:31;;;;;;;69.30;64.30;;;;;;;-2.17;100.00;102899.69;5078931;28;20077;-58
2024/01/21 06:49:58;;;;;;;64.78;59.97;;;;;;;-2.51;100.00;102908.19;5073444;28;20109;-58
2024/01/21 06:52:25;;;;;;;70.70;65.85;;;;;;;-1.56;100.00;102909.00;5078632;28;20068;-58
2024/01/21 06:54:52;;;;;;;68.70;63.70;;;;;;;-2.04;100.00;102920.81;5074955;28;20067;-59
2024/01/21 06:57:19;;;;;;;73.28;68.07;;;;;;;-1.65;100.00;102919.88;5079690;28;20052;-59
2024/01/21 06:59:47;;;;;;;61.28;56.65;;;;;;;-2.17;100.00;102917.91;5076863;28;20533;-58
2024/01/21 07:02:14;;;;;;;59.22;54.78;;;;;;;-1.20;100.00;102923.78;5076411;28;20052;-59
2024/01/21 07:04:41;;;;;;;60.92;56.28;;;;;;;-1.96;100.00;102921.31;5078832;28;20056;-59
2024/01/21 07:07:08;;;;;;;59.63;55.13;;;;;;;-2.18;100.00;102933.59;5076344;28;20067;-59
2024/01/21 07:09:35;;;;;;;63.35;58.65;;;;;;;-1.46;100.00;102931.09;5073389;28;20060;-58
2024/01/21 07:12:02;;;;;;;66.38;61.47;;;;;;;-1.91;100.00;102929.72;5072901;28;20052;-59
2024/01/21 07:14:33;;;;;;;54.40;50.20;;;;;;;-1.99;100.00;102936.25;5080123;28;20573;-59
2024/01/21 07:17:03;;;;;;;62.60;57.90;;;;;;;-1.34;100.00;102934.03;5074495;28;20052;-58
2024/01/21 07:19:30;;;;;;;63.15;58.35;;;;;;;-2.05;100.00;102931.31;5078111;28;20083;-58
2024/01/21 07:21:56;;;;;;;65.50;60.60;;;;;;;-1.93;100.00;102939.41;5076993;28;20068;-58
2024/01/21 07:24:24;;;;;;;63.03;58.22;;;;;;;-1.88;100.00;102937.41;5079342;28;20063;-59
2024/01/21 07:26:50;;;;;;;59.58;55.17;;;;;;;-1.65;100.00;102940.72;5067901;28;20048;-57
2024/01/21 07:29:17;;;;;;;68.53;63.83;;;;;;;-1.54;100.00;102938.47;5079971;28;20063;-58
2024/01/21 07:31:44;;;;;;;65.05;60.60;;;;;;;-1.71;100.00;102941.84;5076499;28;20492;-58
2024/01/21 07:34:13;;;;;;;62.65;58.17;;;;;;;-1.16;100.00;102944.41;5078604;28;20063;-58
2024/01/21 07:36:40;;;;;;;60.28;55.78;;;;;;;-1.61;100.00;102937.88;5070255;28;20057;-58
2024/01/21 07:39:07;;;;;;;59.28;54.88;;;;;;;-1.96;100.00;102942.16;5080331;28;20508;-58
2024/01/21 07:41:34;;;;;;;60.80;56.50;;;;;;;-1.90;100.00;102943.63;5066934;28;20435;-58
2024/01/21 07:44:01;;;;;;;67.97;63.17;;;;;;;-1.88;100.00;102939.19;5068506;28;20417;-58
2024/01/21 07:46:27;;;;;;;66.57;61.88;;;;;;;-2.04;100.00;102939.03;5070439;28;20064;-58
2024/01/21 07:48:55;;;;;;;64.88;60.17;;;;;;;-1.82;100.00;102938.88;5076867;28;20055;-59
2024/01/21 07:51:23;;;;;;;68.50;63.70;;;;;;;-1.53;100.00;102945.34;5079933;28;20059;-56
2024/01/21 07:53:50;;;;;;;70.13;65.22;;;;;;;-1.82;100.00;102941.50;5079331;28;20057;-56
2024/01/21 07:56:18;;;;;;;63.65;59.00;;;;;;;-1.61;100.00;102943.09;5075498;28;20143;-56
2024/01/21 07:58:44;;;;;;;69.85;65.05;;;;;;;-1.55;100.00;102946.34;5074064;28;20065;-58
2024/01/21 08:01:13;;;;;;;70.18;65.28;;;;;;;-1.40;100.00;102943.00;5083534;28;20071;-56
2024/01/21 08:03:40;;;;;;;64.88;60.17;;;;;;;-1.90;100.00;102938.41;5080888;28;20052;-57
2024/01/21 08:06:08;;;;;;;70.18;65.28;;;;;;;-1.74;100.00;102944.59;5079044;28;20071;-57
2024/01/21 08:08:36;;;;;;;57.65;53.30;;;;;;;-1.64;100.00;102945.84;5071130;28;20161;-57
2024/01/21 08:11:03;;;;;;;62.92;58.42;;;;;;;-1.71;100.00;102948.81;5075380;28;20059;-56
2024/01/21 08:13:30;;;;;;;62.22;57.72;;;;;;;-1.60;100.00;102954.41;5082062;28;20066;-57
2024/01/21 08:15:57;;;;;;;56.67;52.58;;;;;;;-1.79;100.00;102953.53;5081969;28;20530;-58
2024/01/21 08:18:24;;;;;;;56.75;52.35;;;;;;;-1.76;100.00;102959.44;5081394;28;20059;-56
2024/01/21 08:20:51;;;;;;;59.20;54.90;;;;;;;-1.25;100.00;102962.28;5076888;28;20534;-56
2024/01/21 08:23:19;;;;;;;66.05;61.35;;;;;;;-1.17;100.00;102958.38;5079958;28;20083;-58
2024/01/21 08:25:47;;;;;;;64.85;60.25;;;;;;;-1.63;100.00;102952.78;5073719;28;20049;-57
2024/01/21 08:28:14;;;;;;;62.95;58.55;;;;;;;-1.44;100.00;102963.16;5077483;28;20056;-57
2024/01/21 08:30:41;;;;;;;63.20;58.60;;;;;;;-1.20;100.00;102966.34;5070954;28;20058;-58
2024/01/21 08:33:09;;;;;;;68.85;63.95;;;;;;;-0.98;100.00;102965.31;5077255;28;20060;-58
2024/01/21 08:35:36;;;;;;;58.15;53.95;;;;;;;-0.89;100.00;102972.69;5081246;28;20056;-57
2024/01/21 08:38:03;;;;;;;57.67;53.58;;;;;;;-0.78;100.00;102974.78;5078562;28;20078;-58
2024/01/21 08:40:31;;;;;;;48.78;45.17;;;;;;;-1.36;100.00;102962.81;5078150;28;20069;-57
2024/01/21 08:42:59;;;;;;;50.50;46.70;;;;;;;-1.40;100.00;102974.28;5075358;28;20511;-57
2024/01/21 08:45:26;;;;;;;58.10;53.80;;;;;;;-1.19;100.00;102972.41;5076196;28;20052;-58
2024/01/21 08:47:53;;;;;;;60.60;56.20;;;;;;;-1.25;100.00;102970.09;5075015;28;20056;-56
2024/01/21 08:50:20;;;;;;;54.20;50.00;;;;;;;-1.45;100.00;102971.91;5071394;28;20060;-57
2024/01/21 08:52:46;;;;;;;58.53;54.03;;;;;;;-0.96;100.00;102977.38;5077561;28;20048;-57
2024/01/21 08:55:14;;;;;;;64.03;59.33;;;;;;;-0.67;100.00;102971.59;5077760;28;20632;-57
2024/01/21 08:57:39;;;;;;;56.05;51.85;;;;;;;-1.04;100.00;102970.84;5077096;28;20064;-57
2024/01/21 09:00:10;;;;;;;51.15;47.35;;;;;;;-1.04;100.00;102969.06;5074635;28;20055;-57
2024/01/21 09:02:36;;;;;;;54.17;50.17;;;;;;;-0.86;100.00;102969.91;5085713;28;20113;-57
2024/01/21 09:05:04;;;;;;;49.15;45.55;;;;;;;-1.32;100.00;102976.53;5080483;28;20142;-57
2024/01/21 09:07:31;;;;;;;52.70;48.70;;;;;;;-1.04;100.00;102982.09;5077422;28;20174;-57
2024/01/21 09:09:58;;;;;;;50.78;46.97;;;;;;;-1.18;100.00;102984.53;5070249;28;20078;-57
2024/01/21 09:12:25;;;;;;;49.15;45.60;;;;;;;-1.32;100.00;102984.38;5078829;28;20056;-58
2024/01/21 09:14:51;;;;;;;49.85;46.15;;;;;;;-1.01;100.00;102979.34;5081017;28;20496;-57
2024/01/21 09:17:19;;;;;;;54.33;50.33;;;;;;;-0.68;100.00;102990.81;5076692;28;20063;-57
2024/01/21 09:19:46;;;;;;;44.63;41.25;;;;;;;-1.22;100.00;102985.59;5075820;28;20060;-58
2024/01/21 09:22:13;;;;;;;47.53;43.90;;;;;;;-0.72;100.00;102990.97;5071264;28;20052;-57
2024/01/21 09:24:40;;;;;;;42.50;39.20;;;;;;;-1.28;100.00;102983.28;5078177;28;20114;-56
2024/01/21 09:27:08;;;;;;;40.38;37.22;;;;;;;-1.36;100.00;102990.63;5081995;28;20538;-57
2024/01/21 09:29:34;;;;;;;45.45;42.05;;;;;;;-0.96;100.00;102977.38;5076281;28;20729;-57
2024/01/21 09:32:02;;;;;;;45.50;42.00;;;;;;;-1.08;100.00;102977.13;5083423;28;20056;-57
2024/01/21 09:34:30;;;;;;;48.40;44.60;;;;;;;-0.94;100.00;102979.88;5077453;28;20060;-57
2024/01/21 09:36:57;;;;;;;39.35;36.45;;;;;;;-1.53;100.00;102978.41;5073225;28;20471;-56
2024/01/21 09:39:25;;;;;;;43.88;40.58;;;;;;;-1.36;100.00;102980.19;5077842;28;20495;-57
2024/01/21 09:41:53;;;;;;;47.10;43.70;;;;;;;-0.99;100.00;102976.69;5078186;28;20052;-57
2024/01/21 09:44:21;;;;;;;44.50;41.20;;;;;;;-0.86;100.00;102969.91;5080820;28;20052;-56
2024/01/21 09:46:52;;;;;;;42.63;39.15;;;;;;;-1.51;100.00;102968.72;5070706;28;20045;-56
2024/01/21 09:49:20;;;;;;;41.53;38.33;;;;;;;-1.26;100.00;102961.44;5074572;28;20068;-56
2024/01/21 09:51:50;;;;;;;43.47;40.08;;;;;;;-1.20;100.00;102953.31;5079632;28;20526;-56
2024/01/21 09:54:16;;;;;;;50.15;46.25;;;;;;;-1.17;100.00;102971.44;5078010;28;20079;-56
2024/01/21 09:56:44;;;;;;;47.28;43.78;;;;;;;-1.26;100.00;102973.63;5073169;28;20057;-57
2024/01/21 09:59:11;;;;;;;46.90;43.50;;;;;;;-1.46;100.00;102967.59;5071476;28;20064;-57
2024/01/21 10:01:39;;;;;;;47.35;43.92;;;;;;;-0.90;100.00;102968.41;5075918;28;20064;-57
2024/01/21 10:04:06;;;;;;;45.42;41.92;;;;;;;-1.40;100.00;102967.31;5072207;28;20055;-57
2024/01/21 10:06:34;;;;;;;43.72;40.22;;;;;;;-1.50;100.00;102965.22;5076143;28;20053;-57
2024/01/21 10:09:17;;;;;;;50.03;46.33;;;;;;;-0.86;100.00;102959.47;5073165;28;20048;-57
2024/01/21 10:11:44;;;;;;;48.17;44.47;;;;;;;-1.04;100.00;102955.19;5082333;28;20084;-58
2024/01/21 10:14:11;;;;;;;47.88;44.17;;;;;;;-0.99;100.00;102958.41;5075988;28;20506;-58
2024/01/21 10:16:42;;;;;;;44.97;41.58;;;;;;;-1.38;100.00;102960.25;5076995;28;20117;-58
2024/01/21 10:19:13;;;;;;;43.83;40.45;;;;;;;-1.14;100.00;102956.56;5074515;28;20590;-58
2024/01/21 10:21:40;;;;;;;46.95;43.50;;;;;;;-1.30;100.00;102959.03;5077257;28;20055;-59
2024/01/21 10:24:08;;;;;;;49.60;45.80;;;;;;;-1.29;100.00;102966.81;5076966;28;20424;-58
2024/01/21 10:26:37;;;;;;;49.45;45.65;;;;;;;-0.93;100.00;102958.09;5078195;28;20145;-59
2024/01/21 10:29:04;;;;;;;45.35;41.50;;;;;;;-1.40;100.00;102963.84;5066376;28;20052;-58
2024/01/21 10:31:33;;;;;;;41.30;38.00;;;;;;;-1.10;100.00;102960.69;5077932;28;20071;-59
2024/01/21 10:34:02;;;;;;;40.90;37.65;;;;;;;-0.88;100.00;102971.75;5076925;28;20512;-58
2024/01/21 10:36:33;;;;;;;43.80;40.35;;;;;;;-1.01;100.00;102970.69;5072774;28;20114;-58
2024/01/21 10:39:04;;;;;;;41.70;38.50;;;;;;;-1.69;100.00;102968.69;5072796;28;20071;-58
2024/01/21 10:41:32;;;;;;;47.20;43.60;;;;;;;-0.61;100.00;102961.69;5084064;28;20060;-58
2024/01/21 10:44:02;;;;;;;43.47;40.08;;;;;;;-1.20;100.00;102966.34;5073946;28;20129;-59
2024/01/21 10:46:32;;;;;;;45.20;41.80;;;;;;;-1.44;100.00;102965.78;5068960;28;20063;-58
2024/01/21 10:48:59;;;;;;;40.70;37.50;;;;;;;-1.77;100.00;102954.31;5073665;28;20057;-58
2024/01/21 10:51:27;;;;;;;41.45;38.15;;;;;;;-1.85;100.00;102955.53;5078224;28;20056;-58
2024/01/21 10:53:57;;;;;;;46.67;42.97;;;;;;;-1.58;100.00;102965.56;5077560;28;20443;-58
2024/01/21 10:56:25;;;;;;;51.20;47.30;;;;;;;-1.62;100.00;102962.28;5067167;28;20052;-58
2024/01/21 10:58:52;;;;;;;52.78;48.67;;;;;;;-1.77;100.00;102967.34;5078587;28;20060;-60
2024/01/21 11:01:24;;;;;;;58.25;53.95;;;;;;;-1.10;100.00;102971.13;5074801;28;20089;-58
2024/01/21 11:03:55;;;;;;;55.27;51.47;;;;;;;-1.26;100.00;102978.84;5079179;28;20527;-58